CFB Gagetown, New Brunswick

Past 24 Hour Conditions

Date / Time
(ADT)
Conditions Temp
(°F)
Humidity
(%)
Dew Point
(°F)
Wind
(mph)
Pressure
(inches)
Visibility
(miles)
18 April 2015
8:00 Sunny 37 64 26 NW 8 29.9 15
7:00 Sunny 34 71 26 NW 7 29.9 15
6:00 Clear 33   77 26 calm 29.9 15
5:00 Mainly Clear 36 71 28 NW 7 29.9 15
4:00 Mainly Clear 41 60 28 NW 10 29.9 15
3:00 Mainly Clear 43 64 32 NW 14 29.8 15
2:00 Partly Cloudy 46 60 33 W 5 29.8 15
1:00 Partly Cloudy 48 58 34 WNW 5 29.8 15
00:00 Cloudy 51 54 35 NNW 7 29.8 15
17 April 2015
23:00 Mostly Cloudy 50 64 38 W 7 29.7 15
22:00 Light Rainshower 52 64 41 SW 9 29.7 15
21:00 Mainly Clear 54 56 39 SSW 7 29.7 15
20:00 Mainly Sunny 56 51 39 SSW 7 29.7 15
19:00 Mainly Sunny 60 46 39 SW 10 29.7 15
18:00 Mainly Sunny 61   44 39 WSW 10 29.7 15
17:00 Mainly Sunny 60 46 39 SW 11 29.7 15
16:00 Mainly Sunny 60 46 39 WSW 13 gust 19 29.7 15
15:00 Partly Cloudy 57 41 34 WSW 9 29.7 15
14:00 Cloudy 53 42 31 SW 13 29.7 15
13:00 Light Rainshower 51 44 30 SSW 11 29.8 15
12:00 Mostly Cloudy 49 45 29 WSW 7 29.8 15
11:00 Mostly Cloudy 47 47 28 SW 11 29.9 15
10:00 Mostly Cloudy 46 49 28 SW 9 29.9 15
9:00 Mostly Cloudy 42 55 27 WSW 9 29.9 15
8:00 Partly Cloudy 40 58 26 WSW 8 29.9 15
N/A Not available
↑ Highest temperature
↓ Lowest temperature

If you require additional historical weather information, please visit Climate Data Online.

What we are doing

Date modified: